Time;durP1;ratioP1;P1;durP2;ratioP2;P2;SDS_P1;SDS_P2;PMS_P1;PMS_P2;Temp;Humidity;BMP_temperature;BMP_pressure;BME280_temperature;BME280_humidity;BME280_pressure;Samples;Min_cycle;Max_cycle;Signal;HPM_P1;HPM_P2
2023/12/18 00:01:06;;;;;;;10.13;7.70;;;1.30;99.90;;;;;;5085647;28;20208;-81
2023/12/18 00:03:32;;;;;;;12.23;8.10;;;1.30;99.90;;;;;;5083850;28;20197;-82
2023/12/18 00:06:00;;;;;;;12.53;8.53;;;1.20;99.90;;;;;;5086195;28;20199;-81
2023/12/18 00:08:27;;;;;;;11.60;7.90;;;1.10;99.90;;;;;;5079457;28;20220;-82
2023/12/18 00:10:54;;;;;;;13.40;8.30;;;1.00;99.90;;;;;;5081135;28;20676;-82
2023/12/18 00:13:21;;;;;;;13.00;8.47;;;1.00;99.90;;;;;;5078403;28;21649;-82
2023/12/18 00:15:47;;;;;;;12.70;7.93;;;0.90;99.90;;;;;;5078209;28;20231;-83
2023/12/18 00:18:14;;;;;;;11.70;8.13;;;0.90;99.90;;;;;;5072342;28;20207;-83
2023/12/18 00:20:41;;;;;;;13.47;7.77;;;0.90;99.90;;;;;;5086264;28;20201;-82
2023/12/18 00:23:09;;;;;;;10.63;7.27;;;0.90;99.90;;;;;;5081203;28;20212;-82
2023/12/18 00:25:36;;;;;;;12.83;7.37;;;0.90;99.90;;;;;;5079488;28;20677;-83
2023/12/18 00:28:03;;;;;;;12.30;8.37;;;1.00;99.90;;;;;;5076524;28;21369;-82
2023/12/18 00:30:30;;;;;;;12.13;7.90;;;1.00;99.90;;;;;;5079416;28;20197;-82
2023/12/18 00:32:56;;;;;;;13.63;7.37;;;1.10;99.90;;;;;;5081960;28;20208;-82
2023/12/18 00:35:23;;;;;;;8.73;6.47;;;0.90;99.90;;;;;;5083151;28;20204;-81
2023/12/18 00:37:50;;;;;;;8.20;6.33;;;0.80;99.90;;;;;;5085452;28;20197;-81
2023/12/18 00:40:18;;;;;;;7.80;5.93;;;0.80;99.90;;;;;;5078176;28;20201;-81
2023/12/18 00:42:45;;;;;;;10.97;7.57;;;0.70;99.90;;;;;;5082334;28;20193;-82
2023/12/18 00:45:12;;;;;;;9.07;6.70;;;0.70;99.90;;;;;;5086400;28;20302;-82
2023/12/18 00:47:39;;;;;;;8.13;6.43;;;0.70;99.90;;;;;;5080628;28;20205;-82
2023/12/18 00:50:07;;;;;;;8.37;6.73;;;0.70;99.90;;;;;;5079997;28;20223;-82
2023/12/18 00:52:34;;;;;;;9.17;6.80;;;0.70;99.90;;;;;;5080195;28;20197;-82
2023/12/18 00:55:01;;;;;;;10.50;6.47;;;0.80;99.90;;;;;;5077915;28;20204;-81
2023/12/18 00:57:29;;;;;;;9.63;6.80;;;0.80;99.90;;;;;;5080149;28;20196;-81
2023/12/18 00:59:56;;;;;;;8.57;6.40;;;0.80;99.90;;;;;;5074413;28;20197;-82
2023/12/18 01:02:23;;;;;;;10.60;6.60;;;0.80;99.90;;;;;;5081009;28;20194;-82
2023/12/18 01:04:50;;;;;;;7.87;5.83;;;0.80;99.90;;;;;;5075154;28;20200;-81
2023/12/18 01:07:17;;;;;;;9.00;6.20;;;0.90;99.90;;;;;;5079945;28;21076;-81
2023/12/18 01:09:44;;;;;;;8.40;5.87;;;0.80;99.90;;;;;;5081989;28;20235;-81
2023/12/18 01:12:11;;;;;;;7.87;5.47;;;0.80;99.90;;;;;;5085304;28;20193;-82
2023/12/18 01:14:39;;;;;;;8.03;5.43;;;0.90;99.90;;;;;;5076649;28;20278;-82
2023/12/18 01:17:06;;;;;;;8.03;6.00;;;0.90;99.90;;;;;;5085495;28;20567;-82
2023/12/18 01:19:32;;;;;;;8.17;5.63;;;1.10;99.90;;;;;;5079048;28;20200;-82
2023/12/18 01:21:59;;;;;;;7.00;5.47;;;1.00;99.90;;;;;;5071348;28;20208;-82
2023/12/18 01:24:26;;;;;;;7.47;6.03;;;0.90;99.90;;;;;;5083124;28;20213;-82
2023/12/18 01:26:53;;;;;;;8.87;5.87;;;0.80;99.90;;;;;;5085974;28;20199;-82
2023/12/18 01:29:19;;;;;;;8.03;5.57;;;0.80;99.90;;;;;;5087697;28;20208;-81
2023/12/18 01:31:48;;;;;;;8.50;5.80;;;1.00;99.90;;;;;;5082381;28;20223;-82
2023/12/18 01:34:15;;;;;;;7.27;5.77;;;1.00;99.90;;;;;;5076111;28;20200;-82
2023/12/18 01:36:41;;;;;;;7.37;5.90;;;1.00;99.90;;;;;;5080924;28;20218;-82
2023/12/18 01:39:08;;;;;;;7.97;6.00;;;0.90;99.90;;;;;;5079145;28;20653;-82
2023/12/18 01:41:35;;;;;;;7.20;5.20;;;0.80;99.90;;;;;;5076625;28;20196;-82
2023/12/18 01:44:03;;;;;;;6.87;5.40;;;0.80;99.90;;;;;;5077036;28;20197;-82
2023/12/18 01:46:30;;;;;;;6.87;4.67;;;0.80;99.90;;;;;;5082648;28;20197;-82
2023/12/18 01:48:58;;;;;;;6.60;5.17;;;0.70;99.90;;;;;;5080216;28;20232;-81
2023/12/18 01:51:25;;;;;;;7.30;4.80;;;0.70;99.90;;;;;;5075676;28;20572;-81
2023/12/18 01:53:55;;;;;;;6.07;4.57;;;0.90;99.90;;;;;;5077500;28;20194;-82
2023/12/18 01:56:25;;;;;;;6.10;3.90;;;1.00;99.90;;;;;;5082135;28;20205;-82
2023/12/18 01:58:55;;;;;;;6.10;4.10;;;0.90;99.90;;;;;;5077958;28;20250;-82
2023/12/18 02:01:22;;;;;;;8.87;4.20;;;1.00;99.90;;;;;;5083960;28;20200;-82
2023/12/18 02:03:49;;;;;;;6.60;4.47;;;1.00;99.90;;;;;;5086018;28;20208;-82
2023/12/18 02:06:21;;;;;;;6.50;4.20;;;0.90;99.90;;;;;;5085419;28;20212;-81
2023/12/18 02:08:48;;;;;;;4.57;3.53;;;0.80;99.90;;;;;;5079120;28;20279;-81
2023/12/18 02:11:15;;;;;;;6.30;3.67;;;0.80;99.90;;;;;;5075161;28;20193;-81
2023/12/18 02:13:41;;;;;;;4.90;3.80;;;0.80;99.90;;;;;;5079628;28;20227;-82
2023/12/18 02:16:09;;;;;;;4.47;3.70;;;0.90;99.90;;;;;;5082828;28;20204;-82
2023/12/18 02:18:42;;;;;;;5.13;3.50;;;1.00;99.90;;;;;;5078336;28;20540;-83
2023/12/18 02:21:09;;;;;;;5.40;3.60;;;1.00;99.90;;;;;;5086180;28;20193;-82
2023/12/18 02:23:37;;;;;;;4.00;3.27;;;0.90;99.90;;;;;;5085476;28;20205;-82
2023/12/18 02:26:04;;;;;;;5.03;3.37;;;0.80;99.90;;;;;;5081940;28;20208;-82
2023/12/18 02:28:31;;;;;;;3.90;3.30;;;0.90;99.90;;;;;;5085191;28;20578;-82
2023/12/18 02:31:00;;;;;;;5.63;3.53;;;0.90;99.90;;;;;;5085866;28;20205;-82
2023/12/18 02:33:27;;;;;;;4.67;3.10;;;0.90;99.90;;;;;;5087169;28;20196;-82
2023/12/18 02:35:54;;;;;;;4.07;3.13;;;1.10;99.90;;;;;;5078004;28;20197;-82
2023/12/18 02:38:21;;;;;;;4.23;3.30;;;1.00;99.90;;;;;;5078807;28;20207;-82
2023/12/18 02:40:49;;;;;;;4.27;3.00;;;1.00;99.90;;;;;;5074747;28;20212;-82
2023/12/18 02:43:16;;;;;;;3.93;3.27;;;0.90;99.90;;;;;;5083506;28;20671;-82
2023/12/18 02:45:42;;;;;;;4.07;3.47;;;0.90;99.90;;;;;;5082792;28;20261;-82
2023/12/18 02:48:09;;;;;;;3.97;2.90;;;0.90;99.90;;;;;;5075934;28;20190;-82
2023/12/18 02:50:36;;;;;;;3.67;3.27;;;0.90;99.90;;;;;;5080265;28;20225;-81
2023/12/18 02:53:03;;;;;;;5.00;3.40;;;0.90;99.90;;;;;;5076783;28;20205;-83
2023/12/18 02:55:30;;;;;;;3.60;2.83;;;0.80;99.90;;;;;;5078612;28;20635;-82
2023/12/18 02:57:58;;;;;;;7.80;3.30;;;0.70;99.90;;;;;;5074733;28;20193;-82
2023/12/18 03:00:24;;;;;;;3.70;3.27;;;0.70;99.90;;;;;;5078197;28;20200;-82
2023/12/18 03:02:51;;;;;;;3.93;3.20;;;0.70;99.90;;;;;;5085243;28;20196;-81
2023/12/18 03:05:18;;;;;;;3.80;3.30;;;0.70;99.90;;;;;;5078435;28;20268;-82
2023/12/18 03:07:45;;;;;;;3.77;3.00;;;0.80;99.90;;;;;;5094522;28;20650;-82
2023/12/18 03:10:11;;;;;;;3.63;3.00;;;0.80;99.90;;;;;;5087172;28;20303;-81
2023/12/18 03:12:38;;;;;;;4.37;3.43;;;0.80;99.90;;;;;;5084131;28;20207;-81
2023/12/18 03:15:09;;;;;;;4.70;3.37;;;0.70;99.90;;;;;;5077061;28;20221;-82
2023/12/18 03:17:36;;;;;;;3.90;3.27;;;0.60;99.90;;;;;;5077495;28;20213;-82
2023/12/18 03:20:02;;;;;;;3.40;3.00;;;0.60;99.90;;;;;;5075108;28;20197;-81
2023/12/18 03:22:29;;;;;;;3.97;3.13;;;0.60;99.90;;;;;;5090376;28;20573;-80
2023/12/18 03:24:56;;;;;;;4.10;3.07;;;0.60;99.90;;;;;;5080372;28;20192;-81
2023/12/18 03:27:23;;;;;;;4.47;2.97;;;0.60;99.90;;;;;;5072589;28;20264;-81
2023/12/18 03:29:50;;;;;;;3.63;2.50;;;0.70;99.90;;;;;;5083417;28;20217;-81
2023/12/18 03:32:18;;;;;;;4.57;3.13;;;0.70;99.90;;;;;;5084084;28;20192;-82
2023/12/18 03:34:45;;;;;;;3.00;2.70;;;0.70;99.90;;;;;;5082369;28;20200;-81
2023/12/18 03:37:12;;;;;;;4.43;3.17;;;0.80;99.90;;;;;;5082737;28;20192;-82
2023/12/18 03:39:38;;;;;;;3.50;2.70;;;0.80;99.90;;;;;;5081485;28;20567;-82
2023/12/18 03:42:06;;;;;;;3.87;3.03;;;0.90;99.90;;;;;;5080998;28;20200;-82
2023/12/18 03:44:32;;;;;;;3.80;2.80;;;0.90;99.90;;;;;;5083518;28;20201;-81
2023/12/18 03:46:59;;;;;;;3.33;2.87;;;0.80;99.90;;;;;;5079975;28;20197;-82
2023/12/18 03:49:27;;;;;;;5.00;2.60;;;0.80;99.90;;;;;;5078156;28;20781;-81
2023/12/18 03:51:54;;;;;;;3.53;2.90;;;1.00;99.90;;;;;;5079984;28;20786;-81
2023/12/18 03:54:21;;;;;;;3.27;2.60;;;1.00;99.90;;;;;;5080705;28;20223;-82
2023/12/18 03:56:47;;;;;;;5.47;2.63;;;0.90;99.90;;;;;;5083315;28;20201;-81
2023/12/18 03:59:14;;;;;;;3.37;2.53;;;0.90;99.90;;;;;;5082514;28;20655;-83
2023/12/18 04:01:41;;;;;;;4.30;2.97;;;0.90;99.90;;;;;;5076689;28;20209;-82
2023/12/18 04:04:08;;;;;;;3.43;2.67;;;0.80;99.90;;;;;;5080394;28;20209;-81
2023/12/18 04:06:36;;;;;;;2.67;2.47;;;0.70;99.90;;;;;;5080707;28;20279;-81
2023/12/18 04:09:04;;;;;;;2.93;2.33;;;0.70;99.90;;;;;;5083120;28;20193;-81
2023/12/18 04:11:31;;;;;;;3.03;2.40;;;0.60;99.90;;;;;;5083782;28;20217;-82
2023/12/18 04:13:58;;;;;;;3.73;2.43;;;0.60;99.90;;;;;;5075764;28;20224;-83
2023/12/18 04:16:24;;;;;;;3.40;2.30;;;0.50;99.90;;;;;;5082067;28;20193;-82
2023/12/18 04:18:51;;;;;;;2.57;2.30;;;0.60;99.90;;;;;;5085629;28;20188;-81
2023/12/18 04:21:18;;;;;;;3.73;2.23;;;0.70;99.90;;;;;;5087963;28;20205;-81
2023/12/18 04:23:46;;;;;;;3.07;2.00;;;0.80;99.90;;;;;;5083620;28;20207;-81
2023/12/18 04:26:13;;;;;;;2.23;2.00;;;0.80;99.90;;;;;;5078135;28;20201;-81
2023/12/18 04:28:40;;;;;;;3.40;2.30;;;0.80;99.90;;;;;;5082597;28;20207;-81
2023/12/18 04:31:07;;;;;;;2.97;2.17;;;0.80;99.90;;;;;;5080745;28;20235;-81
2023/12/18 04:33:33;;;;;;;4.40;2.23;;;0.70;99.90;;;;;;5080069;28;20201;-81
2023/12/18 04:36:01;;;;;;;2.47;1.90;;;0.60;99.90;;;;;;5079506;28;20201;-81
2023/12/18 04:38:28;;;;;;;4.83;2.30;;;0.50;99.90;;;;;;5078550;28;20197;-82
2023/12/18 04:40:58;;;;;;;3.00;2.00;;;0.60;99.90;;;;;;5081873;28;20208;-82
2023/12/18 04:43:24;;;;;;;5.57;2.30;;;0.70;99.90;;;;;;5078208;28;20882;-82
2023/12/18 04:45:51;;;;;;;2.63;1.90;;;0.70;99.90;;;;;;5086392;28;20549;-81
2023/12/18 04:48:18;;;;;;;3.23;2.60;;;0.70;99.90;;;;;;5078856;28;20214;-81
2023/12/18 04:50:45;;;;;;;3.33;2.37;;;0.60;99.90;;;;;;5078048;28;20315;-81
2023/12/18 04:53:12;;;;;;;2.43;2.13;;;0.60;99.90;;;;;;5083796;28;20212;-81
2023/12/18 04:55:39;;;;;;;2.43;2.00;;;0.70;99.90;;;;;;5085235;28;20228;-81
2023/12/18 04:58:07;;;;;;;3.37;1.93;;;0.60;99.90;;;;;;5079170;28;20197;-80
2023/12/18 05:00:34;;;;;;;3.83;1.90;;;0.50;99.90;;;;;;5081401;28;20204;-80
2023/12/18 05:03:00;;;;;;;3.10;2.07;;;0.50;99.90;;;;;;5080189;28;20193;-80
2023/12/18 05:05:27;;;;;;;2.20;2.00;;;0.50;99.90;;;;;;5079878;28;20202;-81
2023/12/18 05:07:54;;;;;;;2.83;1.93;;;0.50;99.90;;;;;;5085429;28;20192;-82
2023/12/18 05:10:21;;;;;;;1.93;1.70;;;0.50;99.90;;;;;;5075718;28;20491;-80
2023/12/18 05:12:47;;;;;;;2.30;1.90;;;0.50;99.90;;;;;;5074075;28;20814;-81
2023/12/18 05:15:16;;;;;;;2.33;2.10;;;0.50;99.90;;;;;;5081403;28;20710;-81
2023/12/18 05:17:42;;;;;;;2.40;1.90;;;0.50;99.90;;;;;;5086257;28;20653;-81
2023/12/18 05:20:12;;;;;;;2.13;1.80;;;0.50;99.90;;;;;;5078388;28;20207;-81
2023/12/18 05:22:39;;;;;;;2.90;2.20;;;0.40;99.90;;;;;;5080688;28;20229;-82
2023/12/18 05:25:08;;;;;;;2.20;1.80;;;0.40;99.90;;;;;;5074606;28;20197;-81
2023/12/18 05:27:34;;;;;;;3.00;2.20;;;0.40;99.90;;;;;;5077284;28;20200;-81
2023/12/18 05:30:01;;;;;;;3.17;2.57;;;0.40;99.90;;;;;;5077449;28;20307;-80
2023/12/18 05:32:29;;;;;;;2.83;2.10;;;0.40;99.90;;;;;;5087444;28;20200;-81
2023/12/18 05:34:55;;;;;;;3.13;2.17;;;0.30;99.90;;;;;;5087661;28;20192;-81
2023/12/18 05:37:22;;;;;;;3.30;2.03;;;0.30;99.90;;;;;;5090744;28;20192;-79
2023/12/18 05:39:49;;;;;;;2.43;1.90;;;0.40;99.90;;;;;;5081909;28;20199;-81
2023/12/18 05:42:18;;;;;;;3.27;2.13;;;0.50;99.90;;;;;;5080218;28;20205;-81
2023/12/18 05:44:45;;;;;;;2.40;1.87;;;0.50;99.90;;;;;;5086944;28;20207;-82
2023/12/18 05:47:12;;;;;;;1.90;1.70;;;0.50;99.90;;;;;;5086895;28;20603;-82
2023/12/18 05:49:40;;;;;;;2.50;2.20;;;0.50;99.90;;;;;;5083009;28;20205;-83
2023/12/18 05:52:07;;;;;;;2.43;1.70;;;0.50;99.90;;;;;;5083524;28;20204;-82
2023/12/18 05:54:34;;;;;;;3.60;2.43;;;0.60;99.90;;;;;;5082854;28;20205;-83
2023/12/18 05:57:00;;;;;;;2.30;2.10;;;0.60;99.90;;;;;;5084935;28;20204;-83
2023/12/18 05:59:27;;;;;;;4.40;2.90;;;0.70;99.90;;;;;;5082988;28;20208;-81
2023/12/18 06:01:55;;;;;;;3.03;2.73;;;0.60;99.90;;;;;;5077579;28;20668;-82
2023/12/18 06:04:22;;;;;;;3.37;2.97;;;0.60;99.90;;;;;;5084756;28;20546;-82
2023/12/18 06:06:50;;;;;;;3.80;3.37;;;0.60;99.90;;;;;;5084097;28;20200;-82
2023/12/18 06:09:17;;;;;;;3.53;3.00;;;0.50;99.90;;;;;;5088685;28;20205;-82
2023/12/18 06:11:44;;;;;;;4.20;3.40;;;0.50;99.90;;;;;;5084217;28;20221;-82
2023/12/18 06:14:11;;;;;;;3.90;3.50;;;0.50;99.90;;;;;;5080149;28;20229;-82
2023/12/18 06:16:37;;;;;;;9.23;3.27;;;0.50;99.90;;;;;;5084936;28;20200;-83
2023/12/18 06:19:04;;;;;;;4.57;3.40;;;0.50;99.90;;;;;;5080041;28;20646;-83
2023/12/18 06:21:31;;;;;;;4.50;3.10;;;0.40;99.90;;;;;;5081028;28;20209;-81
2023/12/18 06:23:59;;;;;;;2.93;2.63;;;0.40;99.90;;;;;;5081234;28;20185;-81
2023/12/18 06:26:26;;;;;;;2.60;2.37;;;0.50;99.90;;;;;;5087158;28;20192;-81
2023/12/18 06:28:52;;;;;;;2.90;2.57;;;0.50;99.90;;;;;;5077816;28;20198;-82
2023/12/18 06:31:19;;;;;;;3.30;2.60;;;0.40;99.90;;;;;;5081554;28;20236;-82
2023/12/18 06:33:46;;;;;;;3.13;2.30;;;0.40;99.90;;;;;;5079314;28;20223;-82
2023/12/18 06:36:15;;;;;;;2.47;2.17;;;0.40;99.90;;;;;;5080180;28;20331;-82
2023/12/18 06:38:42;;;;;;;2.20;2.00;;;0.30;99.90;;;;;;5085287;28;20246;-82
2023/12/18 06:41:10;;;;;;;2.40;2.00;;;0.30;99.90;;;;;;5083739;28;20198;-81
2023/12/18 06:43:37;;;;;;;2.13;1.80;;;0.30;99.90;;;;;;5085412;28;20203;-82
2023/12/18 06:46:04;;;;;;;3.97;1.90;;;0.30;99.90;;;;;;5089386;28;20205;-81
2023/12/18 06:48:31;;;;;;;1.80;1.63;;;0.30;99.90;;;;;;5078936;28;20200;-81
2023/12/18 06:50:58;;;;;;;2.30;2.10;;;0.30;99.90;;;;;;5083478;28;20217;-81
2023/12/18 06:53:25;;;;;;;3.80;2.53;;;0.30;99.90;;;;;;5080857;28;20201;-82
2023/12/18 06:55:52;;;;;;;2.63;2.00;;;0.40;99.90;;;;;;5078324;28;20436;-82
2023/12/18 06:58:20;;;;;;;6.13;2.20;;;0.40;99.90;;;;;;5081320;28;20657;-82
2023/12/18 07:00:47;;;;;;;3.00;2.10;;;0.50;99.90;;;;;;5080791;28;20737;-82
2023/12/18 07:03:14;;;;;;;2.50;2.10;;;0.50;99.90;;;;;;5080382;28;20699;-83
2023/12/18 07:05:42;;;;;;;2.57;1.90;;;0.40;99.90;;;;;;5081455;28;20196;-83
2023/12/18 07:08:09;;;;;;;3.60;2.30;;;0.40;99.90;;;;;;5075809;28;20197;-82
2023/12/18 07:10:35;;;;;;;2.93;2.00;;;0.40;99.90;;;;;;5079696;28;20223;-82
2023/12/18 07:13:02;;;;;;;2.63;2.03;;;0.40;99.90;;;;;;5084595;28;20215;-81
2023/12/18 07:15:30;;;;;;;1.77;1.67;;;0.40;99.90;;;;;;5081901;28;20253;-83
2023/12/18 07:17:58;;;;;;;5.27;2.67;;;0.40;99.90;;;;;;5077406;28;20648;-84
2023/12/18 07:20:25;;;;;;;4.03;2.40;;;0.40;99.90;;;;;;5082107;28;20202;-84
2023/12/18 07:22:52;;;;;;;5.93;2.10;;;0.40;99.90;;;;;;5080392;28;20196;-85
2023/12/18 07:25:19;;;;;;;3.00;2.10;;;0.40;99.90;;;;;;5073472;28;20583;-84
2023/12/18 07:27:47;;;;;;;3.37;2.60;;;0.50;99.90;;;;;;5079721;28;20354;-84
2023/12/18 07:30:15;;;;;;;4.87;2.60;;;0.50;99.90;;;;;;5079407;28;20658;-84
2023/12/18 07:32:43;;;;;;;6.97;1.97;;;0.50;99.90;;;;;;5078483;28;20284;-84
2023/12/18 07:35:10;;;;;;;2.60;2.10;;;0.50;99.90;;;;;;5085397;28;20193;-84
2023/12/18 07:37:37;;;;;;;3.60;2.90;;;0.50;99.90;;;;;;5078755;28;20203;-84
2023/12/18 07:40:04;;;;;;;4.53;2.27;;;0.60;99.90;;;;;;5081675;28;20676;-84
2023/12/18 07:42:30;;;;;;;3.67;2.20;;;0.60;99.90;;;;;;5081738;28;20212;-84
2023/12/18 07:44:57;;;;;;;2.70;2.17;;;0.60;99.90;;;;;;5082545;28;20189;-83
2023/12/18 07:47:24;;;;;;;2.90;2.30;;;0.70;99.90;;;;;;5082533;28;20197;-83
2023/12/18 07:49:52;;;;;;;2.60;2.10;;;0.70;99.90;;;;;;5080524;28;20215;-83
2023/12/18 07:52:19;;;;;;;4.10;2.60;;;0.90;99.90;;;;;;5076738;28;20220;-83
2023/12/18 07:54:46;;;;;;;4.97;2.80;;;1.00;99.90;;;;;;5082303;28;20197;-83
2023/12/18 07:57:13;;;;;;;5.33;2.50;;;1.00;99.90;;;;;;5082497;28;20255;-82
2023/12/18 07:59:40;;;;;;;4.83;3.00;;;1.10;99.90;;;;;;5087174;28;20196;-83
2023/12/18 08:02:09;;;;;;;6.00;2.77;;;1.20;99.90;;;;;;5083968;28;20283;-81
2023/12/18 08:04:36;;;;;;;5.73;2.70;;;1.20;99.90;;;;;;5080913;28;20749;-81
2023/12/18 08:07:05;;;;;;;4.77;2.50;;;1.30;99.90;;;;;;5079578;28;20204;-80
2023/12/18 08:09:32;;;;;;;3.47;2.37;;;1.40;99.90;;;;;;5082239;28;20227;-85
2023/12/18 08:11:59;;;;;;;5.63;2.53;;;1.60;99.90;;;;;;5077627;28;20220;-84
2023/12/18 08:14:26;;;;;;;4.43;2.67;;;1.70;99.90;;;;;;5086531;28;20689;-87
2023/12/18 08:16:53;;;;;;;2.77;2.17;;;1.80;99.90;;;;;;5080749;28;20210;-91
2023/12/18 08:19:20;;;;;;;3.27;2.33;;;1.90;99.90;;;;;;5082758;28;20198;-87
2023/12/18 08:21:47;;;;;;;6.27;2.57;;;2.10;99.90;;;;;;5078260;28;20211;-84
2023/12/18 08:24:15;;;;;;;4.10;2.40;;;2.10;99.90;;;;;;5078606;28;20219;-86
2023/12/18 08:26:42;;;;;;;4.17;2.30;;;2.30;99.90;;;;;;5080933;28;20205;-89
2023/12/18 08:29:09;;;;;;;3.17;2.43;;;2.50;99.90;;;;;;5075958;28;20683;-87
2023/12/18 08:31:37;;;;;;;4.47;2.33;;;2.60;99.90;;;;;;5078125;28;20251;-87
2023/12/18 08:34:04;;;;;;;3.23;2.50;;;2.60;99.90;;;;;;5082701;28;20193;-86
2023/12/18 08:36:30;;;;;;;3.50;2.40;;;2.60;99.90;;;;;;5080894;28;20668;-87
2023/12/18 08:39:08;;;;;;;3.37;2.67;;;2.60;99.90;;;;;;5075918;28;20205;-91
2023/12/18 08:41:38;;;;;;;4.43;2.60;;;2.80;99.90;;;;;;5079163;28;20778;-91
2023/12/18 08:44:05;;;;;;;2.93;2.50;;;3.00;99.90;;;;;;5078164;28;20193;-89
2023/12/18 08:46:32;;;;;;;3.80;2.37;;;3.20;99.90;;;;;;5081693;28;20203;-90
2023/12/18 08:48:59;;;;;;;3.03;2.30;;;3.30;99.90;;;;;;5074603;28;20665;-89
2023/12/18 08:51:26;;;;;;;3.27;2.47;;;3.60;99.90;;;;;;5087180;28;20676;-89
2023/12/18 08:53:54;;;;;;;4.43;2.33;;;3.80;99.90;;;;;;5081548;28;20224;-90
2023/12/18 08:56:21;;;;;;;3.15;2.03;;;4.40;99.90;;;;;;5088399;28;20204;-90
2023/12/18 08:58:55;;;;;;;4.20;2.05;;;5.00;99.90;;;;;;5076657;28;20193;-90
2023/12/18 09:04:22;;;;;;;4.47;4.03;;;6.40;97.90;;;;;;5050383;28;20204;-90
2023/12/18 09:06:50;;;;;;;3.90;2.38;;;6.70;95.40;;;;;;5081347;28;20613;-91
2023/12/18 09:09:20;;;;;;;80.50;53.80;;;6.80;94.10;;;;;;5073569;28;20199;-91
2023/12/18 09:17:46;;;;;;;3.85;1.70;;;8.70;91.50;;;;;;5078500;28;20200;-91
2023/12/18 09:20:13;;;;;;;1.90;1.60;;;9.20;86.20;;;;;;5076667;28;20205;-90
2023/12/18 09:22:40;;;;;;;2.13;1.77;;;9.90;82.30;;;;;;5080590;28;20204;-91
2023/12/18 09:25:08;;;;;;;2.58;1.80;;;10.70;71.30;;;;;;5081612;28;20201;-89
2023/12/18 09:27:35;;;;;;;3.67;1.60;;;11.50;56.30;;;;;;5081155;28;20205;-91
2023/12/18 09:30:05;;;;;;;2.30;1.73;;;12.00;47.50;;;;;;5092124;28;20211;-89
2023/12/18 09:32:32;;;;;;;1.85;1.67;;;12.80;37.70;;;;;;5093166;28;20228;-89
2023/12/18 09:34:58;;;;;;;4.22;1.90;;;13.40;32.60;;;;;;5094036;28;20287;-89
2023/12/18 09:37:27;;;;;;;2.38;2.00;;;14.00;27.00;;;;;;5083728;28;20660;-90
2023/12/18 09:39:54;;;;;;;4.88;1.88;;;14.10;26.10;;;;;;5088265;28;20262;-89
2023/12/18 09:42:21;;;;;;;5.65;2.30;;;14.10;23.90;;;;;;5074404;28;20201;-89
2023/12/18 09:44:48;;;;;;;2.65;2.10;;;13.80;22.70;;;;;;5081352;28;20198;-91
2023/12/18 09:47:18;;;;;;;3.50;2.30;;;13.70;23.10;;;;;;5076677;28;20249;-89
2023/12/18 09:49:45;;;;;;;3.72;2.40;;;13.70;22.50;;;;;;5077130;28;20209;-88
2023/12/18 09:52:12;;;;;;;2.70;2.22;;;13.40;22.70;;;;;;5083223;28;21129;-87
2023/12/18 09:54:42;;;;;;;4.65;1.92;;;13.00;24.80;;;;;;5079921;28;20198;-87
2023/12/18 09:57:12;;;;;;;4.15;1.80;;;12.70;24.30;;;;;;5078863;28;20194;-87
2023/12/18 09:59:40;;;;;;;6.03;1.70;;;12.20;25.50;;;;;;5086275;28;20197;-90
2023/12/18 10:02:08;;;;;;;1.92;1.60;;;11.70;25.10;;;;;;5082392;28;20284;-90
2023/12/18 10:04:37;;;;;;;2.58;1.90;;;11.30;28.40;;;;;;5078705;28;20196;-90
2023/12/18 10:07:04;;;;;;;2.00;1.67;;;10.90;29.20;;;;;;5086800;28;20196;-89
2023/12/18 10:09:34;;;;;;;5.03;3.72;;;10.60;29.40;;;;;;5080369;28;20212;-89
2023/12/18 10:12:01;;;;;;;4.07;1.80;;;10.40;31.20;;;;;;5074779;28;20215;-88
2023/12/18 10:14:28;;;;;;;2.70;2.03;;;10.20;32.20;;;;;;5081121;28;20227;-88
2023/12/18 10:16:55;;;;;;;5.43;1.70;;;10.10;32.80;;;;;;5079494;28;20225;-89
2023/12/18 10:19:24;;;;;;;1.85;1.67;;;10.40;32.40;;;;;;5083562;28;20624;-90
2023/12/18 10:21:52;;;;;;;3.38;1.48;;;10.40;31.90;;;;;;5075824;28;20216;-90
2023/12/18 10:24:20;;;;;;;2.22;1.58;;;10.30;29.80;;;;;;5083158;28;20201;-88
2023/12/18 10:26:48;;;;;;;3.05;1.58;;;10.40;31.80;;;;;;5087521;28;20189;-90
2023/12/18 10:29:16;;;;;;;2.88;1.55;;;10.60;31.50;;;;;;5084413;28;20597;-92
2023/12/18 10:31:43;;;;;;;2.78;1.52;;;11.00;28.70;;;;;;5087042;28;20234;-91
2023/12/18 10:34:09;;;;;;;3.42;1.60;;;11.30;28.30;;;;;;5080355;28;20200;-92
2023/12/18 10:36:39;;;;;;;2.33;1.65;;;11.90;25.30;;;;;;5089973;28;20220;-93
2023/12/18 10:41:56;;;;;;;2.00;1.50;;;12.10;25.40;;;;;;5081872;28;20212;-91
2023/12/18 10:44:25;;;;;;;1.88;1.45;;;12.50;25.60;;;;;;5086378;28;20230;-90
2023/12/18 10:46:54;;;;;;;2.63;1.70;;;12.80;23.20;;;;;;5083718;28;20405;-90
2023/12/18 10:49:23;;;;;;;2.83;1.80;;;13.20;21.60;;;;;;5078534;28;20270;-89
2023/12/18 10:51:52;;;;;;;1.70;1.60;;;13.60;20.60;;;;;;5078992;28;20739;-91
2023/12/18 10:54:21;;;;;;;4.45;1.80;;;13.60;20.00;;;;;;5083846;28;20201;-91
2023/12/18 10:56:49;;;;;;;2.97;1.83;;;13.70;19.60;;;;;;5077695;28;20208;-89
2023/12/18 10:59:18;;;;;;;3.88;2.10;;;13.80;19.90;;;;;;5065086;28;20197;-89
2023/12/18 11:01:46;;;;;;;6.28;2.00;;;14.00;19.00;;;;;;5085019;28;20211;-88
2023/12/18 11:04:14;;;;;;;2.78;2.22;;;14.20;17.30;;;;;;5089216;28;20194;-89
2023/12/18 11:06:42;;;;;;;3.75;1.90;;;13.50;17.80;;;;;;5077597;28;20219;-88
2023/12/18 11:09:10;;;;;;;4.22;2.20;;;13.20;19.40;;;;;;5083117;28;20212;-88
2023/12/18 11:11:40;;;;;;;2.08;1.85;;;12.60;20.00;;;;;;5084898;28;20227;-87
2023/12/18 11:14:14;;;;;;;2.63;1.80;;;12.20;21.00;;;;;;5084647;28;20225;-89
2023/12/18 11:16:58;;;;;;;3.00;2.00;;;11.80;21.90;;;;;;5082449;28;20212;-92
2023/12/18 11:19:33;;;;;;;3.25;2.20;;;11.70;21.90;;;;;;5079463;28;20196;-92
2023/12/18 11:22:04;;;;;;;9.45;2.05;;;11.60;23.90;;;;;;5092759;28;20192;-91
2023/12/18 11:24:36;;;;;;;4.72;2.30;;;11.30;24.70;;;;;;5085176;28;20215;-93
2023/12/18 11:27:06;;;;;;;3.78;2.10;;;11.20;24.70;;;;;;5079128;28;20197;-90
2023/12/18 11:29:42;;;;;;;4.10;1.90;;;11.00;24.50;;;;;;5087836;28;20201;-91
2023/12/18 11:45:13;;;;;;;3.13;1.73;;;10.60;24.20;;;;;;5072657;28;20201;-93
2023/12/18 11:47:40;;;;;;;7.60;1.90;;;10.60;26.40;;;;;;5063596;28;20211;-87
2023/12/18 11:50:08;;;;;;;1.58;1.48;;;10.70;25.50;;;;;;5062839;28;20206;-89
2023/12/18 11:52:35;;;;;;;3.67;1.65;;;10.80;24.50;;;;;;5054266;28;20275;-89
2023/12/18 11:55:03;;;;;;;3.30;1.90;;;10.80;24.30;;;;;;5053758;28;20568;-89
2023/12/18 11:57:30;;;;;;;4.13;1.35;;;10.80;24.40;;;;;;5104460;27;20196;-90
2023/12/18 12:02:44;;;;;;;5.90;2.00;;;10.90;24.40;;;;;;5121517;27;20778;-88
2023/12/18 12:05:12;;;;;;;2.08;1.75;;;10.90;24.40;;;;;;5099519;27;20727;-90
2023/12/18 12:07:39;;;;;;;3.58;1.20;;;10.90;24.40;;;;;;5103982;27;20202;-90
2023/12/18 12:10:07;;;;;;;1.77;1.60;;;10.90;24.40;;;;;;5124701;27;20206;-90
2023/12/18 12:12:34;;;;;;;2.03;1.40;;;10.90;24.40;;;;;;5127837;27;20687;-90
2023/12/18 12:15:04;;;;;;;3.83;1.50;;;11.00;24.50;;;;;;5105606;27;20225;-93
2023/12/18 12:17:31;;;;;;;4.72;1.20;;;11.00;24.50;;;;;;5132165;27;20579;-90
2023/12/18 12:20:00;;;;;;;1.52;1.30;;;11.00;24.30;;;;;;5126447;27;20191;-92
2023/12/18 12:22:29;;;;;;;8.35;1.45;;;11.00;23.20;;;;;;5116389;27;20203;-90
2023/12/18 12:24:59;;;;;;;1.42;1.25;;;11.00;24.50;;;;;;5135280;27;20264;-89
2023/12/18 12:27:27;;;;;;;1.25;1.15;;;11.10;23.40;;;;;;5097828;28;20200;-89
2023/12/18 12:29:53;;;;;;;3.30;1.33;;;11.20;22.20;;;;;;5126081;27;20239;-89
2023/12/18 12:32:21;;;;;;;1.45;1.10;;;11.30;22.00;;;;;;5100037;27;20219;-89
2023/12/18 12:34:48;;;;;;;2.55;1.15;;;11.30;20.60;;;;;;5100240;27;20192;-88
2023/12/18 12:37:17;;;;;;;2.35;1.75;;;11.20;21.40;;;;;;5130425;27;20199;-88
2023/12/18 12:39:58;;;;;;;2.15;1.08;;;11.10;21.90;;;;;;5114665;28;20207;-88
2023/12/18 12:42:25;;;;;;;3.53;1.30;;;11.10;22.20;;;;;;5118338;27;20236;-88
2023/12/18 12:44:54;;;;;;;2.50;1.50;;;11.00;22.90;;;;;;5116618;27;20209;-87
2023/12/18 12:47:27;;;;;;;2.00;1.40;;;11.00;24.50;;;;;;5109036;28;20204;-90
2023/12/18 12:50:15;;;;;;;2.83;1.35;;;11.00;24.50;;;;;;5094562;28;20626;-89
2023/12/18 12:52:44;;;;;;;3.55;1.27;;;11.00;24.50;;;;;;5130286;27;20219;-91
2023/12/18 12:55:11;;;;;;;2.05;1.17;;;11.00;24.50;;;;;;5131675;27;20241;-89
2023/12/18 12:57:38;;;;;;;1.65;1.20;;;10.90;24.40;;;;;;5111677;28;20192;-89
2023/12/18 13:00:09;;;;;;;1.63;1.48;;;10.90;24.40;;;;;;5126614;27;20290;-90
2023/12/18 13:06:02;;;;;;;3.25;1.35;;;10.80;24.40;;;;;;5142571;27;20589;-91
2023/12/18 13:12:14;;;;;;;2.85;1.58;;;10.80;24.30;;;;;;5114224;28;20213;-90
2023/12/18 13:15:36;;;;;;;1.40;1.30;;;10.90;23.10;;;;;;5342465;22;20313;-91
2023/12/18 13:18:05;;;;;;;1.63;1.40;;;10.80;22.50;;;;;;5133917;28;20203;-92
2023/12/18 13:20:35;;;;;;;2.58;1.40;;;10.80;24.30;;;;;;5134357;28;20191;-92
2023/12/18 13:23:02;;;;;;;2.10;1.20;;;10.80;24.40;;;;;;5121493;28;20655;-91
2023/12/18 13:25:30;;;;;;;1.42;1.33;;;10.70;24.20;;;;;;5120748;28;20195;-87
2023/12/18 13:27:58;;;;;;;3.95;1.30;;;10.70;23.20;;;;;;5125772;28;20750;-90
2023/12/18 13:30:25;;;;;;;1.60;1.20;;;10.80;23.00;;;;;;5122204;28;20225;-91